createdAt,value
2022-08-22T00:02:17.547Z,10.45
2022-08-22T00:02:42.057Z,7.38
2022-08-22T00:02:55.978Z,9.27
2022-08-22T00:03:01.345Z,11.35
2022-08-22T00:03:03.072Z,7.10
2022-08-22T00:04:53.050Z,9.63
2022-08-22T00:07:28.647Z,10.40
2022-08-22T00:10:11.627Z,10.02
2022-08-22T00:13:12.114Z,11.10
2022-08-22T00:15:52.547Z,10.13
2022-08-22T00:18:25.128Z,12.17
2022-08-22T00:20:57.578Z,11.00
2022-08-22T00:23:52.584Z,9.38
2022-08-22T00:26:22.094Z,9.60
2022-08-22T00:28:56.238Z,9.82
2022-08-22T00:31:29.050Z,9.47
2022-08-22T00:34:04.586Z,8.80
2022-08-22T00:36:39.318Z,9.52
2022-08-22T00:39:36.309Z,9.32
2022-08-22T00:42:33.702Z,8.73
2022-08-22T00:45:03.212Z,8.70
2022-08-22T00:47:38.731Z,10.23
2022-08-22T00:50:31.561Z,10.07
2022-08-22T00:53:18.053Z,8.45
2022-08-22T00:56:20.435Z,9.57
2022-08-22T00:58:52.976Z,9.57
2022-08-22T01:01:27.253Z,15.88
2022-08-22T01:04:14.635Z,13.77
2022-08-22T01:07:16.370Z,13.23
2022-08-22T01:09:58.367Z,16.13
2022-08-22T01:12:46.408Z,14.63
2022-08-22T01:15:19.649Z,16.23
2022-08-22T01:18:09.358Z,15.15
2022-08-22T01:21:26.458Z,14.20
2022-08-22T01:24:14.747Z,17.15
2022-08-22T01:27:05.058Z,9.40
2022-08-22T01:29:57.128Z,10.20
2022-08-22T01:32:39.543Z,9.40
2022-08-22T01:35:23.000Z,10.40
2022-08-22T01:37:59.660Z,10.48
2022-08-22T01:41:13.118Z,9.30
2022-08-22T01:44:00.619Z,9.38
2022-08-22T01:46:52.597Z,10.27
2022-08-22T01:49:26.437Z,10.73
2022-08-22T01:52:05.507Z,10.55
2022-08-22T01:54:54.785Z,10.17
2022-08-22T01:57:23.383Z,10.45
2022-08-22T01:59:55.749Z,10.98
2022-08-22T02:02:36.446Z,11.65
2022-08-22T02:05:13.104Z,11.50
2022-08-22T02:07:48.121Z,11.23
2022-08-22T02:10:41.438Z,11.07
2022-08-22T02:13:13.689Z,10.48
2022-08-22T02:15:40.155Z,11.20
2022-08-22T02:18:06.534Z,12.18
2022-08-22T02:21:03.036Z,11.87
2022-08-22T02:23:55.986Z,10.13
2022-08-22T02:26:26.010Z,11.60
2022-08-22T02:29:06.564Z,10.45
2022-08-22T02:31:44.498Z,9.98
2022-08-22T02:34:31.211Z,10.90
2022-08-22T02:37:18.124Z,11.77
2022-08-22T02:40:06.245Z,11.10
2022-08-22T02:42:41.546Z,11.70
2022-08-22T02:45:25.003Z,9.93
2022-08-22T02:48:00.203Z,11.47
2022-08-22T02:50:53.745Z,12.20
2022-08-22T02:53:46.311Z,11.38
2022-08-22T02:56:18.721Z,13.52
2022-08-22T02:59:22.555Z,10.40
2022-08-22T03:01:49.106Z,9.83
2022-08-22T03:04:30.620Z,10.43
2022-08-22T03:07:07.796Z,10.00
2022-08-22T03:09:52.215Z,10.00
2022-08-22T03:12:35.053Z,11.68
2022-08-22T03:15:09.969Z,9.37
2022-08-22T03:17:50.712Z,11.60
2022-08-22T03:20:43.207Z,10.57
2022-08-22T03:23:36.256Z,12.32
2022-08-22T03:26:15.012Z,9.45
2022-08-22T03:28:59.853Z,10.80
2022-08-22T03:31:28.748Z,9.50
2022-08-22T03:34:27.077Z,9.95
2022-08-22T03:37:11.307Z,9.82
2022-08-22T03:39:47.161Z,9.98
2022-08-22T03:42:35.522Z,11.27
2022-08-22T03:45:22.935Z,11.02
2022-08-22T03:48:02.419Z,11.23
2022-08-22T03:50:47.572Z,11.32
2022-08-22T03:53:26.246Z,10.02
2022-08-22T03:56:25.402Z,10.33
2022-08-22T03:59:22.310Z,9.70
2022-08-22T04:02:42.545Z,10.02
2022-08-22T04:05:10.397Z,9.57
2022-08-22T04:08:01.705Z,10.40
2022-08-22T04:10:47.371Z,10.80
2022-08-22T04:13:27.787Z,10.02
2022-08-22T04:16:31.928Z,9.77
2022-08-22T04:19:36.194Z,11.50
2022-08-22T04:22:36.173Z,11.40
2022-08-22T04:25:08.501Z,10.13
2022-08-22T04:27:57.005Z,10.95
2022-08-22T04:30:33.270Z,10.70
2022-08-22T04:33:10.895Z,10.15
2022-08-22T04:35:44.863Z,11.55
2022-08-22T04:38:30.205Z,9.93
2022-08-22T04:41:13.598Z,11.35
2022-08-22T04:43:56.719Z,11.35
2022-08-22T04:46:35.127Z,10.10
2022-08-22T04:49:23.016Z,9.95
2022-08-22T04:51:57.335Z,10.07
2022-08-22T04:54:45.826Z,10.20
2022-08-22T04:57:36.267Z,10.68
2022-08-22T05:00:10.245Z,11.82
2022-08-22T05:02:40.227Z,11.23
2022-08-22T05:05:15.629Z,11.40
2022-08-22T05:07:50.721Z,14.00
2022-08-22T05:10:21.942Z,11.70
2022-08-22T05:12:54.398Z,11.90
2022-08-22T05:15:27.857Z,12.55
2022-08-22T05:18:00.119Z,11.50
2022-08-22T05:20:28.392Z,12.25
2022-08-22T05:23:17.418Z,15.82
2022-08-22T05:25:47.269Z,12.77
2022-08-22T05:28:20.732Z,13.95
2022-08-22T05:30:48.826Z,12.57
2022-08-22T05:33:19.495Z,11.43
2022-08-22T05:35:57.892Z,11.52
2022-08-22T05:38:30.906Z,12.32
2022-08-22T05:41:06.811Z,11.02
2022-08-22T05:43:38.404Z,10.67
2022-08-22T05:46:09.907Z,11.20
2022-08-22T05:48:53.294Z,11.35
2022-08-22T05:51:27.009Z,10.38
2022-08-22T05:54:09.339Z,11.65
2022-08-22T05:56:41.182Z,14.43
2022-08-22T05:59:35.247Z,10.02
2022-08-22T06:02:01.752Z,11.45
2022-08-22T06:04:37.131Z,10.23
2022-08-22T06:07:14.699Z,12.18
2022-08-22T06:09:47.226Z,10.53
2022-08-22T06:12:21.821Z,12.27
2022-08-22T06:15:12.548Z,10.70
2022-08-22T06:17:49.870Z,9.02
2022-08-22T06:20:37.150Z,9.45
2022-08-22T06:23:07.550Z,10.50
2022-08-22T06:25:38.858Z,9.63
2022-08-22T06:28:12.400Z,11.65
2022-08-22T06:30:39.632Z,9.20
2022-08-22T06:33:12.839Z,10.90
2022-08-22T06:36:02.580Z,8.97
2022-08-22T06:38:35.622Z,8.43
2022-08-22T06:41:09.195Z,8.65
2022-08-22T06:43:42.484Z,10.05
2022-08-22T06:46:13.156Z,10.48
2022-08-22T06:48:41.302Z,8.33
2022-08-22T06:51:08.842Z,8.32
2022-08-22T06:53:47.913Z,8.95
2022-08-22T06:56:22.259Z,7.93
2022-08-22T06:58:54.507Z,8.25
2022-08-22T07:01:27.241Z,8.77
2022-08-22T07:03:59.429Z,10.25
2022-08-22T07:06:33.938Z,8.00
2022-08-22T07:09:00.689Z,9.80
2022-08-22T07:11:38.175Z,7.28
2022-08-22T07:14:11.573Z,8.80
2022-08-22T07:16:44.070Z,7.72
2022-08-22T07:19:30.782Z,8.80
2022-08-22T07:21:58.174Z,9.77
2022-08-22T07:24:31.726Z,7.28
2022-08-22T07:27:20.646Z,7.33
2022-08-22T07:30:04.007Z,8.32
2022-08-22T07:32:43.248Z,8.32
2022-08-22T07:35:09.843Z,7.88
2022-08-22T07:38:04.369Z,9.82
2022-08-22T07:40:49.239Z,10.73
2022-08-22T07:43:32.681Z,7.07
2022-08-22T07:46:07.514Z,9.07
2022-08-22T07:49:08.217Z,8.88
2022-08-22T07:51:43.147Z,6.78
2022-08-22T07:54:27.135Z,6.57
2022-08-22T07:57:01.250Z,6.82
2022-08-22T07:59:30.271Z,6.78
2022-08-22T08:02:00.110Z,6.22
2022-08-22T08:04:36.882Z,6.45
2022-08-22T08:07:08.471Z,8.97
2022-08-22T08:09:48.712Z,5.47
2022-08-22T08:12:16.169Z,5.53
2022-08-22T08:14:46.248Z,7.63
2022-08-22T08:17:32.307Z,4.85
2022-08-22T08:20:03.494Z,7.10
2022-08-22T08:22:31.081Z,7.18
2022-08-22T08:25:00.500Z,6.95
2022-08-22T08:27:50.207Z,6.45
2022-08-22T08:30:22.271Z,7.50
2022-08-22T08:32:57.592Z,4.60
2022-08-22T08:36:03.539Z,9.88
2022-08-22T08:38:36.511Z,6.32
2022-08-22T08:41:32.921Z,5.07
2022-08-22T08:44:37.896Z,4.97
2022-08-22T08:47:24.142Z,6.83
2022-08-22T08:50:29.290Z,6.97
2022-08-22T08:53:14.997Z,7.30
2022-08-22T08:55:41.541Z,5.97
2022-08-22T08:58:33.719Z,7.43
2022-08-22T09:01:27.526Z,7.17
2022-08-22T09:04:15.334Z,18.85
2022-08-22T09:06:52.878Z,5.47
2022-08-22T09:09:46.607Z,6.75
2022-08-22T09:16:09.936Z,5.57
2022-08-22T09:19:07.183Z,6.07
2022-08-22T09:21:55.639Z,6.38
2022-08-22T09:24:34.429Z,7.50
2022-08-22T09:27:08.974Z,5.75
2022-08-22T09:29:54.864Z,7.13
2022-08-22T09:32:35.766Z,5.03
2022-08-22T09:35:15.579Z,6.05
2022-08-22T09:38:03.084Z,5.53
2022-08-22T09:40:52.210Z,5.15
2022-08-22T09:43:45.157Z,5.17
2022-08-22T09:46:15.089Z,6.03
2022-08-22T09:48:47.229Z,5.97
2022-08-22T09:51:32.220Z,6.10
2022-08-22T09:54:06.226Z,4.60
2022-08-22T09:56:44.740Z,6.43
2022-08-22T09:59:27.984Z,5.85
2022-08-22T10:02:06.802Z,4.95
2022-08-22T10:04:56.306Z,6.22
2022-08-22T10:08:07.746Z,6.20
2022-08-22T10:10:38.123Z,6.27
2022-08-22T10:13:27.019Z,5.47
2022-08-22T10:16:15.025Z,7.35
2022-08-22T10:18:52.810Z,6.60
2022-08-22T10:21:32.673Z,5.63
2022-08-22T10:24:25.446Z,7.57
2022-08-22T10:26:55.859Z,4.50
2022-08-22T10:29:54.351Z,6.65
2022-08-22T10:32:34.542Z,6.28
2022-08-22T10:35:17.498Z,5.65
2022-08-22T10:37:56.477Z,5.77
2022-08-22T10:40:29.351Z,5.78
2022-08-22T10:43:02.775Z,5.40
2022-08-22T10:45:40.583Z,5.40
2022-08-22T10:48:10.461Z,4.90
2022-08-22T10:50:54.999Z,6.77
2022-08-22T10:53:42.748Z,4.97
2022-08-22T10:56:14.009Z,5.07
2022-08-22T10:59:02.364Z,4.80
2022-08-22T11:01:41.577Z,5.38
2022-08-22T11:04:28.184Z,5.27
2022-08-22T11:07:38.214Z,6.85
2022-08-22T11:10:19.241Z,7.32
2022-08-22T11:13:14.068Z,5.95
2022-08-22T11:15:43.663Z,4.95
2022-08-22T11:18:57.956Z,4.90
2022-08-22T11:21:47.611Z,5.10
2022-08-22T11:24:56.752Z,4.88
2022-08-22T11:27:40.165Z,5.72
2022-08-22T11:30:18.594Z,6.70
2022-08-22T11:33:02.206Z,4.90
2022-08-22T11:35:41.763Z,5.00
2022-08-22T11:38:49.610Z,5.15
2022-08-22T11:41:28.393Z,5.53
2022-08-22T11:44:15.794Z,4.95
2022-08-22T11:46:50.365Z,5.40
2022-08-22T11:49:42.654Z,6.55
2022-08-22T11:52:51.699Z,4.97
2022-08-22T11:55:24.076Z,4.43
2022-08-22T11:58:31.829Z,4.38
2022-08-22T12:01:21.987Z,7.13
2022-08-22T12:04:04.794Z,5.38
2022-08-22T12:06:55.884Z,4.32
2022-08-22T12:09:43.249Z,4.97
2022-08-22T12:12:23.268Z,5.80
2022-08-22T12:15:30.460Z,5.07
2022-08-22T12:18:21.217Z,4.57
2022-08-22T12:21:14.029Z,4.80
2022-08-22T12:23:55.814Z,5.13
2022-08-22T12:26:50.570Z,4.55
2022-08-22T12:29:54.138Z,6.07
2022-08-22T12:32:39.266Z,4.72
2022-08-22T12:35:16.572Z,5.28
2022-08-22T12:38:26.533Z,4.68
2022-08-22T12:41:34.938Z,6.18
2022-08-22T12:44:26.671Z,5.33
2022-08-22T12:47:22.458Z,4.78
2022-08-22T12:50:19.954Z,6.47
2022-08-22T12:52:51.046Z,6.97
2022-08-22T12:55:48.770Z,4.10
2022-08-22T12:58:24.248Z,4.07
2022-08-22T13:00:52.542Z,9.93
2022-08-22T13:03:28.163Z,7.32
2022-08-22T13:06:00.580Z,4.35
2022-08-22T13:08:33.462Z,4.75
2022-08-22T13:11:10.045Z,4.83
2022-08-22T13:13:56.647Z,5.35
2022-08-22T13:16:25.595Z,5.40
2022-08-22T13:19:00.571Z,6.50
2022-08-22T13:21:39.663Z,6.80
2022-08-22T13:24:22.547Z,5.37
2022-08-22T13:27:02.222Z,8.10
2022-08-22T13:29:53.633Z,5.35
2022-08-22T13:32:30.911Z,4.75
2022-08-22T13:34:59.679Z,5.22
2022-08-22T13:37:35.488Z,5.33
2022-08-22T13:40:08.741Z,4.50
2022-08-22T13:42:45.550Z,4.85
2022-08-22T13:45:25.806Z,5.93
2022-08-22T13:47:59.497Z,4.45
2022-08-22T13:50:35.828Z,4.40
2022-08-22T13:53:50.078Z,5.43
2022-08-22T13:56:50.673Z,5.40
2022-08-22T13:59:49.427Z,4.25
2022-08-22T14:02:34.186Z,5.00
2022-08-22T14:05:06.882Z,4.37
2022-08-22T14:07:38.776Z,3.95
2022-08-22T14:10:14.774Z,6.18
2022-08-22T14:13:09.024Z,4.43
2022-08-22T14:15:44.899Z,4.90
2022-08-22T14:18:31.455Z,4.83
2022-08-22T14:21:40.501Z,3.92
2022-08-22T14:24:25.776Z,4.03
2022-08-22T14:27:06.423Z,4.72
2022-08-22T14:29:38.857Z,5.40
2022-08-22T14:32:13.818Z,3.80
2022-08-22T14:34:45.332Z,5.68
2022-08-22T14:37:28.849Z,3.83
2022-08-22T14:40:02.014Z,3.92
2022-08-22T14:42:50.775Z,5.50
2022-08-22T14:45:25.393Z,4.10
2022-08-22T14:48:30.987Z,3.97
2022-08-22T14:51:10.225Z,4.70
2022-08-22T14:53:39.939Z,6.70
2022-08-22T14:56:22.859Z,5.07
2022-08-22T14:58:56.090Z,4.77
2022-08-22T15:01:26.410Z,6.10
2022-08-22T15:04:01.508Z,4.38
2022-08-22T15:06:36.064Z,4.93
2022-08-22T15:09:22.611Z,5.22
2022-08-22T15:11:49.488Z,4.97
2022-08-22T15:14:26.204Z,4.95
2022-08-22T15:16:56.062Z,5.75
2022-08-22T15:19:42.273Z,4.15
2022-08-22T15:22:17.090Z,6.75
2022-08-22T15:24:51.895Z,4.60
2022-08-22T15:27:25.334Z,6.95
2022-08-22T15:30:00.627Z,4.00
2022-08-22T15:32:31.849Z,4.40
2022-08-22T15:35:08.934Z,5.35
2022-08-22T15:37:54.079Z,4.60
2022-08-22T15:40:41.215Z,7.43
2022-08-22T15:43:20.122Z,5.45
2022-08-22T15:45:47.940Z,4.18
2022-08-22T15:48:29.750Z,5.13
2022-08-22T15:51:10.400Z,5.83
2022-08-22T15:53:43.212Z,6.15
2022-08-22T15:56:12.651Z,7.53
2022-08-22T15:58:48.090Z,5.05
2022-08-22T16:01:19.824Z,5.30
2022-08-22T16:04:02.037Z,5.67
2022-08-22T16:06:50.484Z,5.10
2022-08-22T16:09:40.749Z,4.80
2022-08-22T16:12:35.539Z,5.20
2022-08-22T16:15:05.379Z,4.85
2022-08-22T16:17:31.798Z,4.17
2022-08-22T16:20:19.742Z,6.38
2022-08-22T16:22:58.963Z,5.05
2022-08-22T16:25:44.318Z,5.80
2022-08-22T16:28:54.309Z,4.90
2022-08-22T16:31:24.547Z,5.43
2022-08-22T16:33:51.349Z,5.13
2022-08-22T16:36:21.027Z,5.63
2022-08-22T16:38:52.235Z,6.30
2022-08-22T16:41:43.309Z,6.65
2022-08-22T16:44:15.871Z,5.57
2022-08-22T16:46:46.018Z,5.05
2022-08-22T16:49:29.456Z,5.05
2022-08-22T16:52:20.996Z,5.15
2022-08-22T16:54:50.405Z,6.82
2022-08-22T16:57:59.304Z,4.30
2022-08-22T17:00:49.715Z,4.88
2022-08-22T17:03:19.339Z,5.38
2022-08-22T17:06:02.495Z,5.00
2022-08-22T17:08:49.059Z,6.25
2022-08-22T17:11:33.663Z,5.73
2022-08-22T17:14:17.530Z,4.78
2022-08-22T17:17:02.310Z,4.78
2022-08-22T17:19:43.255Z,5.20
2022-08-22T17:22:18.750Z,4.57
2022-08-22T17:24:50.917Z,4.23
2022-08-22T17:27:27.960Z,4.78
2022-08-22T17:30:12.005Z,7.72
2022-08-22T17:33:02.595Z,4.80
2022-08-22T17:36:26.493Z,6.10
2022-08-22T17:38:59.793Z,4.63
2022-08-22T17:41:47.567Z,4.53
2022-08-22T17:44:24.341Z,4.47
2022-08-22T17:47:15.011Z,7.32
2022-08-22T17:49:41.491Z,7.28
2022-08-22T17:52:25.080Z,4.50
2022-08-22T17:55:01.292Z,5.45
2022-08-22T17:57:34.038Z,4.32
2022-08-22T18:00:28.339Z,5.00
2022-08-22T18:03:13.454Z,6.38
2022-08-22T18:06:04.209Z,6.87
2022-08-22T18:11:41.363Z,6.88
2022-08-22T18:14:18.438Z,5.03
2022-08-22T18:16:48.489Z,4.80
2022-08-22T18:19:23.874Z,5.63
2022-08-22T18:21:58.822Z,5.25
2022-08-22T18:24:35.134Z,7.47
2022-08-22T18:27:09.332Z,5.47
2022-08-22T18:30:16.563Z,4.88
2022-08-22T18:33:05.990Z,4.57
2022-08-22T18:35:53.801Z,5.07
2022-08-22T18:38:24.204Z,4.65
2022-08-22T18:41:19.703Z,4.38
2022-08-22T18:43:48.330Z,7.32
2022-08-22T18:46:31.634Z,5.63
2022-08-22T18:49:18.054Z,6.72
2022-08-22T18:51:44.737Z,5.60
2022-08-22T18:54:11.488Z,5.85
2022-08-22T18:56:43.606Z,6.18
2022-08-22T18:59:22.281Z,4.70
2022-08-22T19:02:26.317Z,4.95
2022-08-22T19:05:21.692Z,5.80
2022-08-22T19:08:12.651Z,7.20
2022-08-22T19:10:55.224Z,5.75
2022-08-22T19:13:46.234Z,5.43
2022-08-22T19:16:38.299Z,5.60
2022-08-22T19:19:17.861Z,4.97
2022-08-22T19:22:23.174Z,5.93
2022-08-22T19:25:19.187Z,6.50
2022-08-22T19:28:14.268Z,5.63
2022-08-22T19:30:50.086Z,6.70
2022-08-22T19:33:34.521Z,6.07
2022-08-22T19:36:11.511Z,6.05
2022-08-22T19:38:57.431Z,6.18
2022-08-22T19:41:59.748Z,6.03
2022-08-22T19:44:26.150Z,5.78
2022-08-22T19:47:26.991Z,6.20
2022-08-22T19:50:00.902Z,8.35
2022-08-22T19:52:51.899Z,5.53
2022-08-22T19:55:44.996Z,6.17
2022-08-22T19:58:33.012Z,7.60
2022-08-22T20:01:35.427Z,7.55
2022-08-22T20:04:20.634Z,7.93
2022-08-22T20:07:05.047Z,6.30
2022-08-22T20:10:05.392Z,6.77
2022-08-22T20:12:55.374Z,5.88
2022-08-22T20:15:24.321Z,6.07
2022-08-22T20:20:56.461Z,6.03
2022-08-22T20:23:28.766Z,6.77
2022-08-22T20:25:57.137Z,7.68
2022-08-22T20:28:48.861Z,5.90
2022-08-22T20:31:22.115Z,6.32
2022-08-22T20:33:55.238Z,6.43
2022-08-22T20:36:27.565Z,5.23
2022-08-22T20:39:00.658Z,5.90
2022-08-22T20:41:34.151Z,6.55
2022-08-22T20:44:00.692Z,8.50
2022-08-22T20:46:55.178Z,6.53
2022-08-22T20:49:34.414Z,9.90
2022-08-22T20:52:03.548Z,6.55
2022-08-22T20:54:40.988Z,5.95
2022-08-22T20:57:10.479Z,6.68
2022-08-22T20:59:41.622Z,6.15
2022-08-22T21:02:28.631Z,7.83
2022-08-22T21:05:03.716Z,7.07
2022-08-22T21:07:33.822Z,7.20
2022-08-22T21:10:28.422Z,6.90
2022-08-22T21:13:07.630Z,8.30
2022-08-22T21:15:46.595Z,7.00
2022-08-22T21:18:23.338Z,6.43
2022-08-22T21:20:50.687Z,6.55
2022-08-22T21:23:17.681Z,6.65
2022-08-22T21:26:04.398Z,7.28
2022-08-22T21:28:35.449Z,6.30
2022-08-22T21:31:13.182Z,7.75
2022-08-22T21:33:42.863Z,7.57
2022-08-22T21:36:12.566Z,6.55
2022-08-22T21:38:40.629Z,6.30
2022-08-22T21:41:07.433Z,7.00
2022-08-22T21:43:37.840Z,6.28
2022-08-22T21:46:06.925Z,7.25
2022-08-22T21:48:35.198Z,7.97
2022-08-22T21:51:42.274Z,6.25
2022-08-22T21:54:30.350Z,7.30
2022-08-22T21:57:16.115Z,6.93
2022-08-22T21:59:51.894Z,9.63
2022-08-22T22:02:41.159Z,6.53
2022-08-22T22:05:11.283Z,7.70
2022-08-22T22:07:40.342Z,6.80
2022-08-22T22:10:10.375Z,8.20
2022-08-22T22:12:41.897Z,7.50
2022-08-22T22:15:12.614Z,10.57
2022-08-22T22:17:39.337Z,7.57
2022-08-22T22:20:07.085Z,6.00
2022-08-22T22:22:33.539Z,7.13
2022-08-22T22:25:04.281Z,6.05
2022-08-22T22:27:31.678Z,6.88
2022-08-22T22:29:58.390Z,7.32
2022-08-22T22:32:24.921Z,7.07
2022-08-22T22:34:51.487Z,7.03
2022-08-22T22:37:18.554Z,7.13
2022-08-22T22:39:45.161Z,7.63
2022-08-22T22:42:11.669Z,6.43
2022-08-22T22:44:38.130Z,7.93
2022-08-22T22:47:04.938Z,7.13
2022-08-22T22:49:32.521Z,7.20
2022-08-22T22:52:00.011Z,7.80
2022-08-22T22:54:34.319Z,7.47
2022-08-22T22:57:00.830Z,8.70
2022-08-22T22:59:27.692Z,7.63
2022-08-22T23:02:08.084Z,7.63
2022-08-22T23:04:37.982Z,11.57
2022-08-22T23:07:05.803Z,7.38
2022-08-22T23:09:38.755Z,9.10
2022-08-22T23:12:12.399Z,8.60
2022-08-22T23:14:38.881Z,9.27
2022-08-22T23:17:05.671Z,7.85
2022-08-22T23:19:33.091Z,8.30
2022-08-22T23:22:00.964Z,6.97
2022-08-22T23:24:30.032Z,6.15
2022-08-22T23:26:57.315Z,8.60
2022-08-22T23:29:24.118Z,7.82
2022-08-22T23:31:56.558Z,7.68
2022-08-22T23:34:25.891Z,6.87
2022-08-22T23:36:54.781Z,7.65
2022-08-22T23:39:22.967Z,11.15
2022-08-22T23:41:49.670Z,8.90
2022-08-22T23:44:19.035Z,10.95
2022-08-22T23:46:46.297Z,8.80
2022-08-22T23:49:13.970Z,7.53
2022-08-22T23:51:41.564Z,7.60
2022-08-22T23:54:08.154Z,8.90
2022-08-22T23:56:38.975Z,7.78
2022-08-22T23:59:09.438Z,9.67
